createdAt,value
2023-04-28T00:02:42.875Z,13.10
2023-04-28T00:05:48.746Z,13.05
2023-04-28T00:08:54.557Z,12.98
2023-04-28T00:12:00.477Z,13.05
2023-04-28T00:15:05.821Z,13.08
2023-04-28T00:18:11.302Z,13.05
2023-04-28T00:21:16.527Z,12.92
2023-04-28T00:24:22.690Z,12.90
2023-04-28T00:27:28.072Z,12.87
2023-04-28T00:30:34.658Z,12.86
2023-04-28T00:33:40.472Z,12.87
2023-04-28T00:36:45.437Z,12.81
2023-04-28T00:39:52.697Z,12.88
2023-04-28T00:42:58.710Z,12.82
2023-04-28T00:46:04.817Z,12.78
2023-04-28T00:49:10.665Z,12.83
2023-04-28T00:52:22.224Z,13.04
2023-04-28T00:55:26.927Z,12.90
2023-04-28T00:58:32.841Z,12.93
2023-04-28T01:01:37.884Z,12.85
2023-04-28T01:04:43.300Z,12.95
2023-04-28T01:07:49.182Z,12.96
2023-04-28T01:10:53.790Z,12.94
2023-04-28T01:14:01.350Z,12.87
2023-04-28T01:17:09.840Z,12.82
2023-04-28T01:20:15.789Z,12.95
2023-04-28T01:23:21.045Z,12.99
2023-04-28T01:26:26.375Z,12.95
2023-04-28T01:29:32.550Z,12.86
2023-04-28T01:32:40.402Z,12.94
2023-04-28T01:35:45.537Z,12.93
2023-04-28T01:38:50.778Z,13.00
2023-04-28T01:41:56.697Z,12.98
2023-04-28T01:45:03.021Z,12.75
2023-04-28T01:48:09.258Z,12.78
2023-04-28T01:51:14.826Z,12.83
2023-04-28T01:54:20.039Z,12.83
2023-04-28T01:57:24.750Z,12.73
2023-04-28T02:00:31.198Z,12.69
2023-04-28T02:03:37.774Z,12.80
2023-04-28T02:06:36.833Z,12.85
2023-04-28T02:09:43.183Z,12.79
2023-04-28T02:12:49.980Z,12.79
2023-04-28T02:15:56.592Z,12.78
2023-04-28T02:19:01.948Z,12.82
2023-04-28T02:22:07.186Z,12.78
2023-04-28T02:25:12.459Z,12.65
2023-04-28T02:28:17.692Z,12.67
2023-04-28T02:31:24.428Z,12.77
2023-04-28T02:34:29.893Z,12.71
2023-04-28T02:37:35.341Z,12.83
2023-04-28T02:40:41.194Z,12.92
2023-04-28T02:43:46.480Z,12.92
2023-04-28T02:46:53.134Z,12.88
2023-04-28T02:49:59.000Z,12.65
2023-04-28T02:53:04.502Z,12.71
2023-04-28T02:56:11.336Z,12.71
2023-04-28T02:59:16.445Z,12.71
2023-04-28T03:02:23.247Z,12.73
2023-04-28T03:05:29.567Z,12.71
2023-04-28T03:08:34.731Z,12.58
2023-04-28T03:11:40.612Z,12.54
2023-04-28T03:14:46.318Z,12.52
2023-04-28T03:17:52.633Z,12.52
2023-04-28T03:20:57.490Z,12.66
2023-04-28T03:24:05.275Z,12.73
2023-04-28T03:27:10.285Z,12.49
2023-04-28T03:30:17.122Z,12.63
2023-04-28T03:33:15.059Z,12.64
2023-04-28T03:36:08.207Z,12.63
2023-04-28T03:39:07.393Z,12.64
2023-04-28T03:42:12.789Z,12.59
2023-04-28T03:45:30.202Z,12.60
2023-04-28T03:48:35.990Z,12.59
2023-04-28T03:51:40.754Z,12.58
2023-04-28T03:54:45.662Z,12.63
2023-04-28T03:57:51.199Z,12.49
2023-04-28T04:00:57.043Z,12.49
2023-04-28T04:04:03.166Z,12.66
2023-04-28T04:07:09.322Z,12.68
2023-04-28T04:10:14.525Z,12.74
2023-04-28T04:13:20.407Z,12.69
2023-04-28T04:16:29.209Z,12.57
2023-04-28T04:19:22.017Z,12.59
2023-04-28T04:22:27.526Z,12.58
2023-04-28T04:25:33.112Z,12.61
2023-04-28T04:28:40.042Z,12.63
2023-04-28T04:31:46.253Z,12.71
2023-04-28T04:34:54.028Z,12.64
2023-04-28T04:37:59.142Z,12.66
2023-04-28T04:41:04.696Z,12.70
2023-04-28T04:44:14.109Z,12.74
2023-04-28T04:47:18.779Z,12.71
2023-04-28T04:50:25.530Z,12.80
2023-04-28T04:53:30.867Z,12.88
2023-04-28T04:56:36.216Z,12.94
2023-04-28T04:59:42.698Z,12.99
2023-04-28T05:02:50.437Z,12.97
2023-04-28T05:05:56.519Z,12.98
2023-04-28T05:09:05.597Z,13.01
2023-04-28T05:12:11.106Z,13.03
2023-04-28T05:15:19.606Z,13.05
2023-04-28T05:18:26.611Z,13.04
2023-04-28T05:21:32.217Z,13.12
2023-04-28T05:24:39.397Z,13.11
2023-04-28T05:27:46.396Z,13.20
2023-04-28T05:30:51.921Z,13.23
2023-04-28T05:33:58.930Z,13.26
2023-04-28T05:36:57.414Z,13.23
2023-04-28T05:39:51.455Z,13.27
2023-04-28T05:42:58.348Z,13.34
2023-04-28T05:46:04.031Z,13.36
2023-04-28T05:49:10.205Z,13.25
2023-04-28T05:52:15.239Z,13.28
2023-04-28T05:55:21.576Z,13.24
2023-04-28T05:58:19.429Z,13.17
2023-04-28T06:01:24.535Z,13.26
2023-04-28T06:04:30.788Z,13.31
2023-04-28T06:07:36.022Z,13.33
2023-04-28T06:10:41.527Z,13.31
2023-04-28T06:13:46.745Z,13.20
2023-04-28T06:16:52.086Z,13.28
2023-04-28T06:19:57.915Z,13.28
2023-04-28T06:23:03.976Z,13.28
2023-04-28T06:26:11.698Z,13.21
2023-04-28T06:29:18.235Z,13.16
2023-04-28T06:32:24.395Z,13.07
2023-04-28T06:35:31.123Z,13.01
2023-04-28T06:38:37.741Z,13.01
2023-04-28T06:41:44.176Z,13.06
2023-04-28T06:44:50.863Z,13.12
2023-04-28T06:47:58.837Z,13.11
2023-04-28T06:51:03.659Z,13.24
2023-04-28T06:54:09.243Z,13.41
2023-04-28T06:57:14.991Z,13.45
2023-04-28T07:00:21.247Z,13.46
2023-04-28T07:03:26.276Z,13.45
2023-04-28T07:06:34.355Z,13.41
2023-04-28T07:09:39.296Z,13.50
2023-04-28T07:12:44.510Z,13.67
2023-04-28T07:15:49.695Z,13.86
2023-04-28T07:18:55.633Z,14.04
2023-04-28T07:22:02.584Z,14.14
2023-04-28T07:25:07.858Z,14.14
2023-04-28T07:28:13.176Z,14.25
2023-04-28T07:31:18.680Z,14.27
2023-04-28T07:34:24.900Z,14.24
2023-04-28T07:37:31.200Z,14.30
2023-04-28T07:40:37.032Z,14.41
2023-04-28T07:43:42.917Z,14.56
2023-04-28T07:46:50.318Z,14.44
2023-04-28T07:49:55.433Z,14.51
2023-04-28T07:53:01.001Z,14.66
2023-04-28T07:56:07.618Z,14.77
2023-04-28T07:59:12.816Z,14.91
2023-04-28T08:02:19.729Z,15.12
2023-04-28T08:05:25.913Z,15.11
2023-04-28T08:08:32.315Z,15.01
2023-04-28T08:11:37.811Z,15.11
2023-04-28T08:14:43.701Z,14.96
2023-04-28T08:17:49.468Z,14.93
2023-04-28T08:20:55.525Z,14.92
2023-04-28T08:24:00.391Z,14.94
2023-04-28T08:27:06.789Z,15.02
2023-04-28T08:30:11.896Z,15.12
2023-04-28T08:33:17.261Z,15.36
2023-04-28T08:36:26.037Z,15.44
2023-04-28T08:39:33.712Z,15.56
2023-04-28T08:42:38.540Z,15.70
2023-04-28T08:45:44.655Z,15.75
2023-04-28T08:48:58.132Z,15.81
2023-04-28T08:52:11.072Z,15.82
2023-04-28T08:55:20.657Z,15.89
2023-04-28T08:58:26.272Z,15.90
2023-04-28T09:01:31.280Z,15.93
2023-04-28T09:04:38.138Z,15.67
2023-04-28T09:07:43.700Z,15.52
2023-04-28T09:10:48.901Z,15.47
2023-04-28T09:13:48.793Z,15.16
2023-04-28T09:16:50.747Z,14.92
2023-04-28T09:19:55.883Z,14.81
2023-04-28T09:23:02.101Z,14.65
2023-04-28T09:26:19.231Z,14.63
2023-04-28T09:29:28.117Z,14.52
2023-04-28T09:32:37.410Z,14.44
2023-04-28T09:35:55.928Z,14.35
2023-04-28T09:39:00.595Z,14.25
2023-04-28T09:42:10.144Z,14.25
2023-04-28T09:45:22.178Z,14.20
2023-04-28T09:48:26.503Z,14.10
2023-04-28T09:51:35.386Z,14.06
2023-04-28T09:54:40.976Z,14.04
2023-04-28T09:57:50.083Z,14.09
2023-04-28T10:00:56.055Z,13.95
2023-04-28T10:04:02.069Z,13.96
2023-04-28T10:07:08.257Z,13.93
2023-04-28T10:10:13.309Z,14.02
2023-04-28T10:13:18.661Z,14.08
2023-04-28T10:16:24.212Z,14.16
2023-04-28T10:19:30.154Z,14.17
2023-04-28T10:23:27.601Z,14.19
2023-04-28T10:26:32.487Z,14.12
2023-04-28T10:29:40.653Z,14.21
2023-04-28T10:32:46.279Z,14.31
2023-04-28T10:35:57.166Z,14.27
2023-04-28T10:39:26.220Z,14.38
2023-04-28T10:43:10.002Z,14.30
2023-04-28T10:46:17.567Z,14.37
2023-04-28T10:49:23.972Z,14.34
2023-04-28T10:52:53.842Z,14.25
2023-04-28T10:55:59.905Z,14.24
2023-04-28T10:59:08.492Z,14.16
2023-04-28T11:02:18.107Z,14.17
2023-04-28T11:05:26.972Z,13.95
2023-04-28T11:08:46.224Z,14.11
2023-04-28T11:11:51.941Z,14.14
2023-04-28T11:14:58.283Z,14.21
2023-04-28T11:18:03.203Z,14.21
2023-04-28T11:21:08.879Z,14.19
2023-04-28T11:24:13.853Z,14.29
2023-04-28T11:27:19.291Z,14.18
2023-04-28T11:30:38.226Z,14.16
2023-04-28T11:33:45.120Z,14.03
2023-04-28T11:36:54.909Z,13.98
2023-04-28T11:40:01.281Z,13.93
2023-04-28T11:43:08.029Z,13.86
2023-04-28T11:46:13.220Z,13.87
2023-04-28T11:49:22.470Z,13.86
2023-04-28T11:52:28.198Z,13.73
2023-04-28T11:55:38.231Z,13.47
2023-04-28T11:58:41.990Z,13.31
2023-04-28T12:01:48.451Z,13.20
2023-04-28T12:04:57.518Z,13.14
2023-04-28T12:08:03.465Z,13.10
2023-04-28T12:11:25.938Z,13.00
2023-04-28T12:14:32.556Z,13.03
2023-04-28T12:17:57.684Z,12.83
2023-04-28T12:21:02.602Z,12.78
2023-04-28T12:24:08.363Z,12.69
2023-04-28T12:27:36.722Z,12.66
2023-04-28T12:30:48.656Z,12.63
2023-04-28T12:33:53.606Z,12.64
2023-04-28T12:36:58.940Z,12.64
2023-04-28T12:40:04.571Z,12.65
2023-04-28T12:43:10.027Z,12.65
2023-04-28T12:46:16.167Z,12.55
2023-04-28T12:49:22.881Z,12.56
2023-04-28T12:52:27.594Z,12.57
2023-04-28T12:55:32.580Z,12.57
2023-04-28T12:58:37.950Z,12.54
2023-04-28T13:01:42.879Z,12.59
2023-04-28T13:04:50.750Z,12.59
2023-04-28T13:07:57.881Z,12.62
2023-04-28T13:11:07.330Z,12.48
2023-04-28T13:14:11.025Z,12.43
2023-04-28T13:17:18.528Z,12.47
2023-04-28T13:20:24.503Z,12.44
2023-04-28T13:23:30.454Z,12.43
2023-04-28T13:26:37.579Z,12.36
2023-04-28T13:29:43.307Z,12.37
2023-04-28T13:32:49.648Z,12.44
2023-04-28T13:35:55.604Z,12.48
2023-04-28T13:39:02.458Z,12.56
2023-04-28T13:42:08.972Z,12.49
2023-04-28T13:45:16.248Z,12.63
2023-04-28T13:48:21.220Z,12.60
2023-04-28T13:51:26.799Z,12.66
2023-04-28T13:54:33.037Z,12.59
2023-04-28T13:57:38.303Z,12.61
2023-04-28T14:00:44.859Z,12.60
2023-04-28T14:03:51.843Z,12.54
2023-04-28T14:06:59.089Z,12.54
2023-04-28T14:09:59.074Z,12.66
2023-04-28T14:13:04.931Z,12.59
2023-04-28T14:16:10.572Z,12.56
2023-04-28T14:19:19.734Z,12.51
2023-04-28T14:22:25.474Z,12.70
2023-04-28T14:25:35.349Z,12.66
2023-04-28T14:28:36.021Z,12.48
2023-04-28T14:31:45.190Z,12.43
2023-04-28T14:34:50.510Z,12.47
2023-04-28T14:37:56.800Z,12.49
2023-04-28T14:41:02.252Z,12.52
2023-04-28T14:44:08.057Z,12.52
2023-04-28T14:47:13.647Z,12.53
2023-04-28T14:50:20.836Z,12.47
2023-04-28T14:53:25.540Z,12.42
2023-04-28T14:56:33.387Z,12.41
2023-04-28T14:59:40.750Z,12.45
2023-04-28T15:02:47.046Z,12.43
2023-04-28T15:05:53.241Z,12.36
2023-04-28T15:08:59.624Z,12.45
2023-04-28T15:12:05.841Z,12.38
2023-04-28T15:15:11.506Z,12.37
2023-04-28T15:18:17.030Z,12.47
2023-04-28T15:21:22.614Z,12.50
2023-04-28T15:24:29.934Z,12.55
2023-04-28T15:27:35.357Z,12.40
2023-04-28T15:30:34.884Z,12.36
2023-04-28T15:33:28.172Z,12.35
2023-04-28T15:36:35.238Z,12.22
2023-04-28T15:39:40.301Z,12.29
2023-04-28T15:42:45.512Z,12.16
2023-04-28T15:45:51.942Z,12.16
2023-04-28T15:48:57.595Z,11.98
2023-04-28T15:52:01.976Z,11.90
2023-04-28T15:55:08.803Z,11.94
2023-04-28T15:58:16.123Z,11.85
2023-04-28T16:01:23.254Z,11.72
2023-04-28T16:04:29.668Z,11.69
2023-04-28T16:07:38.394Z,11.67
2023-04-28T16:10:46.236Z,11.64
2023-04-28T16:13:51.085Z,11.55
2023-04-28T16:16:59.008Z,11.42
2023-04-28T16:20:05.086Z,11.42
2023-04-28T16:23:11.104Z,11.36
2023-04-28T16:26:17.873Z,11.27
2023-04-28T16:29:24.334Z,11.34
2023-04-28T16:32:31.665Z,11.24
2023-04-28T16:35:37.328Z,11.19
2023-04-28T16:38:46.160Z,11.19
2023-04-28T16:41:51.898Z,11.22
2023-04-28T16:44:58.627Z,11.16
2023-04-28T16:48:04.927Z,11.21
2023-04-28T16:51:12.009Z,11.08
2023-04-28T16:54:18.570Z,11.03
2023-04-28T16:57:24.161Z,10.96
2023-04-28T17:00:30.506Z,10.93
2023-04-28T17:03:36.772Z,10.92
2023-04-28T17:06:44.151Z,10.89
2023-04-28T17:09:51.192Z,10.94
2023-04-28T17:12:57.572Z,10.87
2023-04-28T17:16:11.201Z,10.95
2023-04-28T17:19:16.526Z,10.94
2023-04-28T17:22:22.235Z,10.95
2023-04-28T17:25:28.192Z,10.87
2023-04-28T17:28:28.181Z,10.82
2023-04-28T17:31:36.865Z,10.89
2023-04-28T17:34:41.393Z,10.82
2023-04-28T17:37:48.589Z,10.85
2023-04-28T17:40:55.595Z,10.83
2023-04-28T17:44:00.457Z,10.73
2023-04-28T17:47:08.157Z,10.79
2023-04-28T17:50:13.738Z,10.93
2023-04-28T17:53:19.472Z,10.86
2023-04-28T17:56:26.864Z,10.90
2023-04-28T17:59:33.501Z,10.93
2023-04-28T18:02:40.660Z,10.92
2023-04-28T18:05:46.538Z,10.95
2023-04-28T18:08:52.459Z,10.95
2023-04-28T18:12:00.065Z,10.90
2023-04-28T18:15:06.489Z,10.73
2023-04-28T18:18:11.781Z,10.80
2023-04-28T18:21:16.816Z,10.82
2023-04-28T18:24:22.340Z,10.79
2023-04-28T18:27:28.206Z,10.78
2023-04-28T18:30:36.203Z,10.78
2023-04-28T18:33:42.193Z,10.74
2023-04-28T18:36:49.239Z,10.78
2023-04-28T18:39:55.641Z,10.79
2023-04-28T18:43:01.823Z,10.73
2023-04-28T18:46:10.652Z,10.67
2023-04-28T18:49:17.440Z,10.64
2023-04-28T18:52:23.012Z,10.59
2023-04-28T18:55:30.064Z,10.52
2023-04-28T18:58:35.869Z,10.52
2023-04-28T19:01:42.298Z,10.43
2023-04-28T19:04:49.457Z,10.45
2023-04-28T19:07:56.269Z,10.43
2023-04-28T19:11:03.039Z,10.33
2023-04-28T19:14:08.430Z,10.26
2023-04-28T19:17:13.756Z,10.26
2023-04-28T19:20:20.095Z,10.19
2023-04-28T19:23:25.775Z,10.24
2023-04-28T19:26:25.026Z,10.16
2023-04-28T19:29:29.843Z,10.12
2023-04-28T19:32:35.177Z,10.09
2023-04-28T19:35:40.813Z,10.14
2023-04-28T19:38:47.387Z,10.04
2023-04-28T19:41:54.684Z,10.01
2023-04-28T19:44:53.315Z,10.03
2023-04-28T19:48:02.279Z,10.04
2023-04-28T19:51:08.253Z,10.02
2023-04-28T19:54:14.564Z,10.04
2023-04-28T19:57:19.954Z,10.08
2023-04-28T20:00:29.873Z,10.07
2023-04-28T20:03:36.405Z,9.98
2023-04-28T20:06:42.184Z,9.95
2023-04-28T20:09:49.236Z,9.95
2023-04-28T20:12:56.157Z,9.89
2023-04-28T20:16:01.716Z,9.83
2023-04-28T20:19:07.399Z,9.78
2023-04-28T20:22:12.737Z,9.79
2023-04-28T20:25:19.403Z,9.76
2023-04-28T20:28:25.191Z,9.75
2023-04-28T20:31:30.435Z,9.75
2023-04-28T20:34:36.059Z,9.73
2023-04-28T20:37:41.479Z,9.66
2023-04-28T20:40:47.354Z,9.69
2023-04-28T20:43:54.189Z,9.73
2023-04-28T20:47:00.897Z,9.85
2023-04-28T20:50:07.620Z,9.82
2023-04-28T20:53:12.762Z,9.79
2023-04-28T20:56:17.575Z,9.78
2023-04-28T20:59:22.695Z,9.78
2023-04-28T21:02:29.048Z,9.74
2023-04-28T21:05:34.716Z,9.73
2023-04-28T21:08:40.548Z,9.70
2023-04-28T21:11:46.270Z,9.73
2023-04-28T21:14:52.964Z,9.67
2023-04-28T21:17:59.805Z,9.63
2023-04-28T21:21:05.190Z,9.70
2023-04-28T21:24:03.860Z,9.78
2023-04-28T21:26:56.142Z,9.75
2023-04-28T21:30:01.565Z,9.68
2023-04-28T21:33:07.296Z,9.72
2023-04-28T21:36:15.943Z,9.73
2023-04-28T21:39:20.955Z,9.75
2023-04-28T21:42:27.071Z,9.72
2023-04-28T21:45:19.431Z,9.72
2023-04-28T21:48:25.495Z,9.78
2023-04-28T21:51:30.749Z,9.80
2023-04-28T21:54:36.254Z,9.83
2023-04-28T21:57:41.750Z,9.86
2023-04-28T22:00:56.606Z,9.90
2023-04-28T22:04:01.672Z,9.91
2023-04-28T22:07:08.263Z,9.83
2023-04-28T22:10:14.600Z,9.88
2023-04-28T22:13:19.916Z,9.97
2023-04-28T22:16:26.300Z,9.99
2023-04-28T22:19:25.963Z,10.01
2023-04-28T22:22:26.059Z,9.96
2023-04-28T22:25:32.166Z,9.99
2023-04-28T22:28:37.011Z,9.98
2023-04-28T22:31:42.680Z,10.02
2023-04-28T22:34:48.912Z,10.02
2023-04-28T22:37:47.907Z,10.10
2023-04-28T22:40:40.034Z,10.02
2023-04-28T22:43:45.304Z,9.94
2023-04-28T22:46:51.908Z,10.01
2023-04-28T22:49:57.631Z,9.99
2023-04-28T22:53:03.955Z,9.95
2023-04-28T22:56:09.422Z,9.96
2023-04-28T22:59:16.150Z,9.99
2023-04-28T23:02:21.770Z,9.96
2023-04-28T23:05:28.573Z,9.87
2023-04-28T23:08:35.274Z,9.84
2023-04-28T23:11:41.432Z,9.93
2023-04-28T23:14:46.498Z,9.93
2023-04-28T23:17:52.764Z,9.91
2023-04-28T23:21:00.289Z,9.89
2023-04-28T23:24:06.157Z,9.87
2023-04-28T23:27:12.216Z,9.78
2023-04-28T23:30:18.376Z,9.82
2023-04-28T23:33:23.396Z,9.90
2023-04-28T23:36:28.636Z,9.89
2023-04-28T23:39:35.501Z,9.96
2023-04-28T23:42:40.418Z,9.90
2023-04-28T23:45:45.410Z,9.80
2023-04-28T23:48:50.225Z,9.86
2023-04-28T23:51:56.190Z,10.00
2023-04-28T23:55:02.199Z,9.84
2023-04-28T23:58:06.990Z,9.80
